Back to Top

Language: 

My Weather Underground Personal Weather Station Historical Data with Graphs...

Delerius Weather Station Historical Data
Daily Summary for April 8, 2017 Units:  Metric    English   Both
« Previous Day
Next Day »
Daily Weekly Monthly Yearly Custom
  High: Low: Average:
Temperature: 20.2 °C -0.1 °C 10.6 °C
Dew Point: 9.8 °C -0.9 °C 4.8 °C
Humidity: 97 % 41 % 71 %
Wind Speed: 16.1 km/h 0 km/h 3.9 km/h
Wind Gust: 29 km/h - -
Wind:- - South
Pressure: 1025.3 hPa 1019.5 hPa -
Precipitation: 0 mm    
Historical Graphs
 
 
Tabular Data for April 8, 2017
Time Temperature Dew Point Pressure Wind Wind Speed Wind Gust Humidity Rainfall Rate (Hourly) solar Conditions
00:01 3.3 °C 1.5 °C 1025.3 hPa Calm     88 % 0 mm 0 W/m2
00:06 3.3 °C 1.7 °C 1025.3 hPa Calm     89 % 0 mm 0 W/m2
00:11 3.2 °C 1.6 °C 1025.3 hPa Calm     89 % 0 mm 0 W/m2
00:16 3.1 °C 1.4 °C 1025.3 hPa Calm     89 % 0 mm 0 W/m2
00:21 3 °C 1.4 °C 1025.3 hPa Calm     89 % 0 mm 0 W/m2
00:26 3 °C 1.4 °C 1025.3 hPa Calm     89 % 0 mm 0 W/m2
00:31 2.9 °C 1.3 °C 1024.9 hPa Calm     89 % 0 mm 0 W/m2
00:36 2.9 °C 1.4 °C 1025.3 hPa Calm     90 % 0 mm 0 W/m2
00:41 2.8 °C 1.3 °C 1024.9 hPa Calm     90 % 0 mm 0 W/m2
00:46 2.8 °C 1.3 °C 1024.9 hPa Calm     90 % 0 mm 0 W/m2
00:51 2.7 °C 1.2 °C 1024.9 hPa Calm   1.6 km/h 90 % 0 mm 0 W/m2
00:56 2.6 °C 1.1 °C 1024.9 hPa Calm   1.6 km/h 90 % 0 mm 0 W/m2
01:01 2.6 °C 1.1 °C 1024.9 hPa Calm   1.6 km/h 90 % 0 mm 0 W/m2
01:06 2.6 °C 1.3 °C 1024.9 hPa Calm     91 % 0 mm 0 W/m2
01:11 2.6 °C 1.3 °C 1024.9 hPa Calm     91 % 0 mm 0 W/m2
01:16 2.5 °C 1.2 °C 1024.9 hPa Calm     91 % 0 mm 0 W/m2
01:21 2.4 °C 1.1 °C 1024.9 hPa Calm     91 % 0 mm 0 W/m2
01:26 2.4 °C 1.1 °C 1024.6 hPa Calm     91 % 0 mm 0 W/m2
01:31 2.3 °C 1 °C 1024.6 hPa Calm     91 % 0 mm 0 W/m2
01:36 2.2 °C 0.9 °C 1024.6 hPa Calm     91 % 0 mm 0 W/m2
01:41 2.1 °C 0.8 °C 1024.6 hPa Calm     91 % 0 mm 0 W/m2
01:46 2 °C 0.7 °C 1024.6 hPa Calm     91 % 0 mm 0 W/m2
01:51 1.9 °C 0.6 °C 1024.6 hPa Calm     91 % 0 mm 0 W/m2
01:56 1.8 °C 0.5 °C 1024.6 hPa Calm     91 % 0 mm 0 W/m2
02:01 1.8 °C 0.5 °C 1024.3 hPa Calm     91 % 0 mm 0 W/m2
02:06 1.8 °C 0.5 °C 1024.3 hPa Calm     91 % 0 mm 0 W/m2
02:11 1.7 °C 0.6 °C 1024.3 hPa Calm     92 % 0 mm 0 W/m2
02:16 1.7 °C 0.6 °C 1024.3 hPa Calm     92 % 0 mm 0 W/m2
02:17 1.7 °C 0.6 °C 1024.3 hPa Calm     92 % 0 mm 0 W/m2
02:22 1.7 °C 0.6 °C 1024.3 hPa Calm     92 % 0 mm 0 W/m2
02:27 1.6 °C 0.4 °C 1024.3 hPa Calm     92 % 0 mm 0 W/m2
02:32 1.6 °C 0.4 °C 1024.3 hPa Calm     92 % 0 mm 0 W/m2
02:37 1.6 °C 0.4 °C 1024.3 hPa Calm     92 % 0 mm 0 W/m2
02:38 1.5 °C 0.3 °C 1024.3 hPa Calm     92 % 0 mm 0 W/m2
02:43 1.5 °C 0.3 °C 1024.3 hPa Calm     92 % 0 mm 0 W/m2
02:48 1.4 °C 0.2 °C 1024.3 hPa Calm     92 % 0 mm 0 W/m2
02:53 1.3 °C 0.2 °C 1024.3 hPa Calm     92 % 0 mm 0 W/m2
02:58 1.3 °C 0.2 °C 1024.3 hPa Calm     92 % 0 mm 0 W/m2
03:03 1.3 °C 0.2 °C 1023.9 hPa Calm     92 % 0 mm 0 W/m2
03:08 1.2 °C 0.1 °C 1023.9 hPa Calm     92 % 0 mm 0 W/m2
03:13 1.2 °C 0.1 °C 1023.9 hPa Calm     92 % 0 mm 0 W/m2
03:18 1.2 °C 0.2 °C 1023.9 hPa Calm     93 % 0 mm 0 W/m2
03:23 1.2 °C 0.2 °C 1023.9 hPa Calm     93 % 0 mm 0 W/m2
03:28 1.2 °C 0.2 °C 1023.9 hPa Calm     93 % 0 mm 0 W/m2
03:33 1.2 °C 0.2 °C 1023.9 hPa Calm     93 % 0 mm 0 W/m2
03:38 1.2 °C 0.2 °C 1023.9 hPa Calm     93 % 0 mm 0 W/m2
03:43 1.1 °C 0.1 °C 1023.9 hPa Calm     93 % 0 mm 0 W/m2
03:48 1.1 °C 0.1 °C 1023.9 hPa Calm     93 % 0 mm 0 W/m2
03:53 1 °C 0 °C 1023.9 hPa Calm     93 % 0 mm 0 W/m2
03:58 0.9 °C -0.1 °C 1023.6 hPa Calm     93 % 0 mm 0 W/m2
04:03 0.9 °C -0.1 °C 1023.6 hPa Calm     93 % 0 mm 0 W/m2
04:08 0.9 °C -0.1 °C 1023.6 hPa Calm     93 % 0 mm 0 W/m2
04:13 0.8 °C -0.2 °C 1023.6 hPa Calm     93 % 0 mm 0 W/m2
04:19 0.8 °C -0.2 °C 1023.6 hPa Calm     93 % 0 mm 0 W/m2
04:24 0.8 °C -0.2 °C 1023.6 hPa Calm     93 % 0 mm 0 W/m2
04:29 0.8 °C -0.2 °C 1023.6 hPa Calm     93 % 0 mm 0 W/m2
04:34 0.8 °C -0.2 °C 1023.6 hPa Calm     93 % 0 mm 0 W/m2
04:39 0.7 °C -0.3 °C 1023.6 hPa Calm     93 % 0 mm 0 W/m2
04:44 0.6 °C -0.4 °C 1023.6 hPa Calm     93 % 0 mm 0 W/m2
04:49 0.6 °C -0.4 °C 1023.2 hPa Calm     93 % 0 mm 0 W/m2
04:54 0.5 °C -0.5 °C 1023.2 hPa Calm     93 % 0 mm 0 W/m2
04:59 0.5 °C -0.5 °C 1023.2 hPa Calm     93 % 0 mm 0 W/m2
05:04 0.4 °C -0.6 °C 1023.2 hPa Calm     93 % 0 mm 0 W/m2
05:09 0.4 °C -0.6 °C 1023.2 hPa Calm     93 % 0 mm 0 W/m2
05:14 0.3 °C -0.7 °C 1023.2 hPa Calm     93 % 0 mm 0 W/m2
05:19 0.3 °C -0.7 °C 1023.2 hPa Calm     93 % 0 mm 0 W/m2
05:24 0.3 °C -0.6 °C 1023.2 hPa Calm     94 % 0 mm 0 W/m2
05:29 0.3 °C -0.6 °C 1023.6 hPa Calm     94 % 0 mm 0 W/m2
05:34 0.3 °C -0.6 °C 1023.6 hPa Calm     94 % 0 mm 0 W/m2
05:39 0.2 °C -0.7 °C 1023.6 hPa Calm     94 % 0 mm 0 W/m2
05:44 0.2 °C -0.7 °C 1023.6 hPa Calm     94 % 0 mm 0 W/m2
05:49 0.2 °C -0.7 °C 1023.6 hPa Calm     94 % 0 mm 0 W/m2
05:54 0.2 °C -0.7 °C 1023.6 hPa Calm     94 % 0 mm 0 W/m2
05:59 0.1 °C -0.8 °C 1023.6 hPa Calm     94 % 0 mm 0 W/m2
06:04 0.1 °C -0.8 °C 1023.6 hPa Calm     94 % 0 mm 0 W/m2
06:09 0.1 °C -0.8 °C 1023.6 hPa Calm     94 % 0 mm 0 W/m2
06:14 0.1 °C -0.8 °C 1023.6 hPa Calm     94 % 0 mm 0 W/m2
06:19 0 °C -0.8 °C 1023.6 hPa Calm     94 % 0 mm 0 W/m2
06:24 -0.1 °C -0.9 °C 1023.6 hPa Calm     94 % 0 mm 5 W/m2
06:29 0 °C -0.8 °C 1023.6 hPa Calm     94 % 0 mm 7 W/m2
06:34 0.1 °C -0.8 °C 1023.6 hPa Calm     94 % 0 mm 9 W/m2
06:40 0 °C -0.8 °C 1023.6 hPa Calm     94 % 0 mm 12 W/m2
06:45 0 °C -0.8 °C 1023.6 hPa Calm     94 % 0 mm 16 W/m2
06:50 0 °C -0.8 °C 1023.6 hPa Calm     94 % 0 mm 19 W/m2
06:55 0 °C -0.8 °C 1023.6 hPa Calm     94 % 0 mm 23 W/m2
06:56 0 °C -0.8 °C 1023.6 hPa Calm     94 % 0 mm 23 W/m2
07:01 0 °C -0.7 °C 1023.6 hPa Calm     95 % 0 mm 35 W/m2
07:06 0.1 °C -0.6 °C 1023.6 hPa Calm     95 % 0 mm 35 W/m2
07:11 0.1 °C -0.6 °C 1023.6 hPa Calm     95 % 0 mm 33 W/m2
07:13 0.2 °C -0.5 °C 1023.6 hPa Calm     95 % 0 mm 33 W/m2
07:18 0.2 °C -0.5 °C 1023.6 hPa Calm     95 % 0 mm 37 W/m2
07:23 0.3 °C -0.4 °C 1023.2 hPa Calm     95 % 0 mm 40 W/m2
07:28 0.5 °C -0.2 °C 1023.2 hPa Calm     95 % 0 mm 44 W/m2
07:33 0.7 °C 0.1 °C 1023.2 hPa Calm     96 % 0 mm 47 W/m2
07:38 0.9 °C 0.2 °C 1023.6 hPa Calm     95 % 0 mm 54 W/m2
07:43 1.1 °C 0.6 °C 1023.6 hPa Calm     96 % 0 mm 63 W/m2
07:48 1.3 °C 0.7 °C 1023.6 hPa Calm     96 % 0 mm 54 W/m2
07:53 1.6 °C 1.1 °C 1023.6 hPa Calm     96 % 0 mm 56 W/m2
07:58 1.8 °C 1.2 °C 1023.6 hPa Calm     96 % 0 mm 174 W/m2
08:03 2.1 °C 1.6 °C 1023.6 hPa Calm     96 % 0 mm 190 W/m2
08:08 2.4 °C 1.8 °C 1023.6 hPa Calm     96 % 0 mm 206 W/m2
08:14 2.9 °C 2.4 °C 1023.6 hPa Calm     97 % 0 mm 216 W/m2
08:19 3.3 °C 2.7 °C 1023.6 hPa Calm     96 % 0 mm 232 W/m2
08:24 3.7 °C 3.1 °C 1023.6 hPa Calm     96 % 0 mm 246 W/m2
08:29 4.1 °C 3.5 °C 1023.6 hPa Calm     96 % 0 mm 258 W/m2
08:34 4.4 °C 3.7 °C 1023.6 hPa Calm     95 % 0 mm 272 W/m2
08:39 4.8 °C 4.1 °C 1023.2 hPa Calm   1.6 km/h 95 % 0 mm 288 W/m2
08:44 5.2 °C 4.3 °C 1023.2 hPa Calm   1.6 km/h 94 % 0 mm 304 W/m2
08:49 5.5 °C 4.4 °C 1023.2 hPa Calm     93 % 0 mm 318 W/m2
08:54 5.8 °C 4.6 °C 1023.2 hPa Calm     92 % 0 mm 334 W/m2
08:59 6.3 °C 4.9 °C 1023.2 hPa Calm   3.2 km/h 91 % 0 mm 348 W/m2
09:04 6.9 °C 5.4 °C 1023.2 hPa Calm   3.2 km/h 90 % 0 mm 369 W/m2
09:09 7.4 °C 5.6 °C 1023.2 hPa Calm   3.2 km/h 88 % 0 mm 381 W/m2
09:14 8 °C 5.6 °C 1023.2 hPa ESE 1.6 km/h 3.2 km/h 85 % 0 mm 394 W/m2
09:19 8.5 °C 5.9 °C 1023.2 hPa ESE 1.6 km/h 3.2 km/h 84 % 0 mm 415 W/m2
09:24 8.9 °C 6 °C 1023.2 hPa Calm   3.2 km/h 82 % 0 mm 425 W/m2
09:29 9.3 °C 6 °C 1023.2 hPa Calm   3.2 km/h 80 % 0 mm 441 W/m2
09:34 9.8 °C 6.3 °C 1023.6 hPa Calm   3.2 km/h 79 % 0 mm 454 W/m2
09:39 10.3 °C 6.3 °C 1023.2 hPa Calm   6.4 km/h 76 % 0 mm 468 W/m2
09:44 10.7 °C 6.7 °C 1023.2 hPa Calm   6.4 km/h 76 % 0 mm 480 W/m2
09:49 11.1 °C 6.6 °C 1023.2 hPa ESE 1.6 km/h 6.4 km/h 74 % 0 mm 494 W/m2
09:54 11.3 °C 6.6 °C 1023.2 hPa ESE 1.6 km/h 6.4 km/h 73 % 0 mm 510 W/m2
09:59 11.4 °C 6.6 °C 1023.2 hPa ESE 1.6 km/h 6.4 km/h 72 % 0 mm 519 W/m2
10:04 11.7 °C 7 °C 1023.2 hPa ESE 1.6 km/h 6.4 km/h 73 % 0 mm 531 W/m2
10:09 11.9 °C 7 °C 1023.2 hPa ESE 1.6 km/h 9.7 km/h 72 % 0 mm 543 W/m2
10:14 12.1 °C 7.4 °C 1023.2 hPa ESE 3.2 km/h 9.7 km/h 73 % 0 mm 552 W/m2
10:19 12.3 °C 7.4 °C 1023.2 hPa ESE 1.6 km/h 9.7 km/h 72 % 0 mm 559 W/m2
10:24 12.7 °C 7.6 °C 1023.2 hPa ESE 3.2 km/h 8 km/h 71 % 0 mm 570 W/m2
10:29 12.9 °C 7.8 °C 1023.2 hPa ESE 3.2 km/h 8 km/h 71 % 0 mm 580 W/m2
10:34 13.2 °C 7.8 °C 1023.2 hPa East 1.6 km/h 8 km/h 70 % 0 mm 594 W/m2
10:39 13.5 °C 8.1 °C 1023.2 hPa ESE 1.6 km/h 11.3 km/h 70 % 0 mm 608 W/m2
10:45 13.7 °C 8.1 °C 1023.2 hPa ESE 3.2 km/h 11.3 km/h 69 % 0 mm 619 W/m2
10:50 13.8 °C 8.2 °C 1022.9 hPa East 4.8 km/h 9.7 km/h 69 % 0 mm 624 W/m2
10:51 13.8 °C 8 °C 1022.9 hPa East 3.2 km/h 9.7 km/h 68 % 0 mm 624 W/m2
10:56 13.9 °C 8.3 °C 1022.9 hPa East 3.2 km/h 9.7 km/h 69 % 0 mm 636 W/m2
11:01 14.1 °C 8.3 °C 1022.9 hPa ESE 4.8 km/h 14.5 km/h 68 % 0 mm 640 W/m2
11:06 14.3 °C 8.7 °C 1022.9 hPa ESE 6.4 km/h 14.5 km/h 69 % 0 mm 649 W/m2
11:11 14.6 °C 8.6 °C 1022.9 hPa East 4.8 km/h 9.7 km/h 67 % 0 mm 656 W/m2
11:14 14.6 °C 8.6 °C 1022.6 hPa ENE 3.2 km/h 9.7 km/h 67 % 0 mm 661 W/m2
11:19 14.6 °C 8.6 °C 1022.6 hPa ENE 4.8 km/h 11.3 km/h 67 % 0 mm 647 W/m2
11:20 14.6 °C 8.8 °C 1022.6 hPa ENE 4.8 km/h 11.3 km/h 68 % 0 mm 647 W/m2
11:25 14.6 °C 9 °C 1022.6 hPa ENE 6.4 km/h 11.3 km/h 69 % 0 mm 657 W/m2
11:30 14.9 °C 9.1 °C 1022.6 hPa East 4.8 km/h 11.3 km/h 68 % 0 mm 664 W/m2
11:35 15.3 °C 9 °C 1022.6 hPa East 3.2 km/h 8 km/h 66 % 0 mm 679 W/m2
11:40 15.4 °C 9.1 °C 1022.2 hPa NE 4.8 km/h 16.1 km/h 66 % 0 mm 693 W/m2
11:45 15.4 °C 9.1 °C 1022.2 hPa NE 4.8 km/h 16.1 km/h 66 % 0 mm 680 W/m2
11:46 15.6 °C 9.5 °C 1022.2 hPa NE 4.8 km/h 16.1 km/h 67 % 0 mm 689 W/m2
11:51 15.9 °C 9.3 °C 1022.2 hPa East 3.2 km/h 9.7 km/h 65 % 0 mm 703 W/m2
11:56 16.1 °C 9.3 °C 1022.2 hPa ENE 4.8 km/h 9.7 km/h 64 % 0 mm 694 W/m2
12:01 16.2 °C 9.2 °C 1022.2 hPa ENE 6.4 km/h 11.3 km/h 63 % 0 mm 719 W/m2
12:06 16.3 °C 9.2 °C 1022.2 hPa East 4.8 km/h 11.3 km/h 63 % 0 mm 731 W/m2
12:11 16.6 °C 9.5 °C 1021.9 hPa ESE 3.2 km/h 9.7 km/h 63 % 0 mm 710 W/m2
12:16 16.9 °C 9.8 °C 1021.9 hPa ESE 1.6 km/h 8 km/h 63 % 0 mm 721 W/m2
12:19 17.2 °C 9.6 °C 1021.9 hPa East 3.2 km/h 11.3 km/h 61 % 0 mm 722 W/m2
12:24 17.2 °C 9.1 °C 1021.9 hPa NE 3.2 km/h 11.3 km/h 59 % 0 mm 744 W/m2
12:29 17.4 °C 9.3 °C 1021.9 hPa NE 3.2 km/h 11.3 km/h 59 % 0 mm 738 W/m2
12:34 17.7 °C 9.6 °C 1021.6 hPa East 3.2 km/h 9.7 km/h 59 % 0 mm 749 W/m2
12:40 17.9 °C 9.3 °C 1021.6 hPa SE 3.2 km/h 14.5 km/h 57 % 0 mm 758 W/m2
12:45 18.2 °C 9 °C 1021.6 hPa SSW 6.4 km/h 19.3 km/h 55 % 0 mm 751 W/m2
12:50 18.4 °C 9.4 °C 1021.6 hPa SSW 8 km/h 19.3 km/h 56 % 0 mm 763 W/m2
12:55 18.7 °C 8.3 °C 1021.6 hPa SSW 9.7 km/h 19.3 km/h 51 % 0 mm 773 W/m2
13:00 18.8 °C 7.6 °C 1021.6 hPa SSW 11.3 km/h 19.3 km/h 48 % 0 mm 775 W/m2
13:05 18.8 °C 7.2 °C 1021.6 hPa SSW 9.7 km/h 17.7 km/h 47 % 0 mm 763 W/m2
13:10 18.9 °C 8.2 °C 1021.2 hPa South 9.7 km/h 19.3 km/h 50 % 0 mm 758 W/m2
13:15 19.1 °C 9 °C 1021.2 hPa SSW 11.3 km/h 19.3 km/h 52 % 0 mm 759 W/m2
13:20 19.2 °C 9.4 °C 1021.2 hPa SW 11.3 km/h 17.7 km/h 53 % 0 mm 747 W/m2
13:25 19.2 °C 9.1 °C 1021.2 hPa SSW 11.3 km/h 20.9 km/h 52 % 0 mm 763 W/m2
13:30 19.1 °C 8.7 °C 1021.2 hPa South 12.9 km/h 22.5 km/h 51 % 0 mm 751 W/m2
13:35 19.2 °C 8.8 °C 1021.2 hPa SSW 12.9 km/h 22.5 km/h 51 % 0 mm 756 W/m2
13:40 19.2 °C 8.2 °C 1021.2 hPa SSW 12.9 km/h 22.5 km/h 49 % 0 mm 751 W/m2
13:45 19.2 °C 8.5 °C 1021.2 hPa SSW 12.9 km/h 22.5 km/h 50 % 0 mm 747 W/m2
13:50 19.2 °C 8.2 °C 1021.2 hPa SSW 12.9 km/h 20.9 km/h 49 % 0 mm 738 W/m2
13:55 19.4 °C 8.1 °C 1020.9 hPa South 11.3 km/h 19.3 km/h 48 % 0 mm 747 W/m2
14:00 19.6 °C 8.3 °C 1020.9 hPa SSW 12.9 km/h 20.9 km/h 48 % 0 mm 751 W/m2
14:06 19.7 °C 7.4 °C 1020.9 hPa SSW 12.9 km/h 20.9 km/h 45 % 0 mm 742 W/m2
14:11 19.7 °C 7.4 °C 1020.9 hPa SW 11.3 km/h 20.9 km/h 45 % 0 mm 738 W/m2
14:16 19.7 °C 7.7 °C 1020.9 hPa SW 11.3 km/h 20.9 km/h 46 % 0 mm 726 W/m2
14:18 19.8 °C 7.8 °C 1020.9 hPa SW 11.3 km/h 20.9 km/h 46 % 0 mm 722 W/m2
14:23 19.8 °C 7.5 °C 1020.5 hPa SSW 9.7 km/h 19.3 km/h 45 % 0 mm 715 W/m2
14:28 19.8 °C 7.8 °C 1020.5 hPa SSW 11.3 km/h 19.3 km/h 46 % 0 mm 705 W/m2
14:33 19.8 °C 8.2 °C 1020.5 hPa SSW 12.9 km/h 20.9 km/h 47 % 0 mm 696 W/m2
14:38 19.8 °C 8.2 °C 1020.5 hPa SSW 11.3 km/h 20.9 km/h 47 % 0 mm 694 W/m2
14:43 19.9 °C 7.6 °C 1020.5 hPa SSW 11.3 km/h 20.9 km/h 45 % 0 mm 691 W/m2
14:48 19.9 °C 6.6 °C 1020.5 hPa SSW 12.9 km/h 20.9 km/h 42 % 0 mm 684 W/m2
14:53 19.8 °C 6.2 °C 1020.5 hPa SW 14.5 km/h 24.1 km/h 41 % 0 mm 671 W/m2
14:58 20 °C 7.1 °C 1020.5 hPa SW 12.9 km/h 24.1 km/h 43 % 0 mm 664 W/m2
15:03 20.1 °C 7.1 °C 1020.5 hPa SW 12.9 km/h 22.5 km/h 43 % 0 mm 656 W/m2
15:08 20.1 °C 7.4 °C 1020.5 hPa SW 14.5 km/h 24.1 km/h 44 % 0 mm 649 W/m2
15:13 19.9 °C 6.9 °C 1020.5 hPa SW 16.1 km/h 24.1 km/h 43 % 0 mm 635 W/m2
15:15 19.9 °C 7.3 °C 1020.2 hPa SW 16.1 km/h 24.1 km/h 44 % 0 mm 640 W/m2
15:20 20.1 °C 7.4 °C 1020.2 hPa SSW 14.5 km/h 24.1 km/h 44 % 0 mm 621 W/m2
15:25 20 °C 8 °C 1020.2 hPa SSW 12.9 km/h 24.1 km/h 46 % 0 mm 615 W/m2
15:30 20.1 °C 7.8 °C 1020.2 hPa SSW 12.9 km/h 24.1 km/h 45 % 0 mm 606 W/m2
15:35 20.1 °C 7.8 °C 1020.2 hPa SSW 14.5 km/h 25.7 km/h 45 % 0 mm 598 W/m2
15:40 20.1 °C 8.1 °C 1020.2 hPa SSW 12.9 km/h 25.7 km/h 46 % 0 mm 578 W/m2
15:45 20.1 °C 7.8 °C 1020.2 hPa SSW 12.9 km/h 24.1 km/h 45 % 0 mm 573 W/m2
15:50 20.1 °C 7.1 °C 1020.2 hPa SSW 12.9 km/h 22.5 km/h 43 % 0 mm 566 W/m2
15:55 20.2 °C 7.2 °C 1020.2 hPa SSW 12.9 km/h 22.5 km/h 43 % 0 mm 554 W/m2
16:00 20.1 °C 7.1 °C 1020.2 hPa SSW 12.9 km/h 22.5 km/h 43 % 0 mm 533 W/m2
16:05 20 °C 7.4 °C 1019.9 hPa SSW 14.5 km/h 29 km/h 44 % 0 mm 524 W/m2
16:10 19.9 °C 7.6 °C 1019.9 hPa SSW 14.5 km/h 29 km/h 45 % 0 mm 506 W/m2
16:15 19.8 °C 7.2 °C 1019.9 hPa SSW 14.5 km/h 20.9 km/h 44 % 0 mm 494 W/m2
16:20 19.9 °C 7.6 °C 1019.9 hPa SW 12.9 km/h 20.9 km/h 45 % 0 mm 490 W/m2
16:25 20 °C 7.7 °C 1019.9 hPa SSW 12.9 km/h 25.7 km/h 45 % 0 mm 485 W/m2
16:30 19.9 °C 7.3 °C 1019.9 hPa South 14.5 km/h 25.7 km/h 44 % 0 mm 476 W/m2
16:35 19.9 °C 7.6 °C 1019.9 hPa South 14.5 km/h 22.5 km/h 45 % 0 mm 457 W/m2
16:40 19.9 °C 7.6 °C 1019.9 hPa SSW 14.5 km/h 22.5 km/h 45 % 0 mm 441 W/m2
16:45 19.9 °C 7.9 °C 1019.9 hPa SSW 12.9 km/h 19.3 km/h 46 % 0 mm 434 W/m2
16:50 20.1 °C 7.1 °C 1019.9 hPa SSW 12.9 km/h 24.1 km/h 43 % 0 mm 417 W/m2
16:51 20.1 °C 7.4 °C 1019.9 hPa SSW 12.9 km/h 24.1 km/h 44 % 0 mm 415 W/m2
16:56 20 °C 7.7 °C 1019.9 hPa SSW 12.9 km/h 24.1 km/h 45 % 0 mm 403 W/m2
17:01 20.1 °C 7.8 °C 1019.9 hPa SSW 11.3 km/h 17.7 km/h 45 % 0 mm 381 W/m2
17:06 19.9 °C 7.9 °C 1019.9 hPa SW 11.3 km/h 17.7 km/h 46 % 0 mm 362 W/m2
17:11 20 °C 8 °C 1019.5 hPa SW 11.3 km/h 17.7 km/h 46 % 0 mm 352 W/m2
17:16 19.9 °C 7.9 °C 1019.5 hPa SW 11.3 km/h 20.9 km/h 46 % 0 mm 334 W/m2
17:21 20 °C 7.7 °C 1019.5 hPa SSW 9.7 km/h 20.9 km/h 45 % 0 mm 318 W/m2
17:26 19.9 °C 7.6 °C 1019.5 hPa SSW 9.7 km/h 17.7 km/h 45 % 0 mm 306 W/m2
17:31 19.8 °C 7.8 °C 1019.5 hPa SSW 11.3 km/h 17.7 km/h 46 % 0 mm 281 W/m2
17:36 19.7 °C 7.7 °C 1019.5 hPa SSW 9.7 km/h 16.1 km/h 46 % 0 mm 269 W/m2
17:41 19.8 °C 8.2 °C 1019.5 hPa SSW 8 km/h 16.1 km/h 47 % 0 mm 251 W/m2
17:46 19.8 °C 7.8 °C 1019.5 hPa SSW 9.7 km/h 17.7 km/h 46 % 0 mm 244 W/m2
17:51 19.7 °C 8.1 °C 1019.5 hPa SSW 11.3 km/h 17.7 km/h 47 % 0 mm 232 W/m2
17:53 19.7 °C 8.1 °C 1019.5 hPa SSW 11.3 km/h 17.7 km/h 47 % 0 mm 225 W/m2
17:58 19.7 °C 7.4 °C 1019.5 hPa SSW 9.7 km/h 14.5 km/h 45 % 0 mm 214 W/m2
18:03 19.6 °C 7.7 °C 1019.5 hPa SSW 8 km/h 12.9 km/h 46 % 0 mm 200 W/m2
18:08 19.6 °C 7.3 °C 1019.5 hPa SSW 9.7 km/h 16.1 km/h 45 % 0 mm 188 W/m2
18:13 19.4 °C 7.5 °C 1019.5 hPa SSW 9.7 km/h 16.1 km/h 46 % 0 mm 176 W/m2
18:18 19.4 °C 7.2 °C 1019.5 hPa SSW 9.7 km/h 14.5 km/h 45 % 0 mm 165 W/m2
18:23 19.3 °C 7.1 °C 1019.5 hPa SSW 8 km/h 14.5 km/h 45 % 0 mm 155 W/m2
18:28 19.3 °C 7.1 °C 1019.5 hPa SW 8 km/h 14.5 km/h 45 % 0 mm 144 W/m2
18:33 19.2 °C 6.7 °C 1019.5 hPa SW 8 km/h 14.5 km/h 44 % 0 mm 130 W/m2
18:38 19.2 °C 6.9 °C 1019.5 hPa SW 8 km/h 14.5 km/h 45 % 0 mm 120 W/m2
18:39 19.1 °C 6.9 °C 1019.5 hPa SW 8 km/h 14.5 km/h 45 % 0 mm 120 W/m2
18:44 19.1 °C 6.9 °C 1019.5 hPa SW 9.7 km/h 14.5 km/h 45 % 0 mm 107 W/m2
18:49 18.9 °C 7 °C 1019.5 hPa SW 8 km/h 12.9 km/h 46 % 0 mm 90 W/m2
18:54 18.8 °C 7.2 °C 1019.5 hPa SSW 6.4 km/h 11.3 km/h 47 % 0 mm 83 W/m2
18:59 18.6 °C 7.1 °C 1019.5 hPa SSW 9.7 km/h 14.5 km/h 47 % 0 mm 72 W/m2
19:04 18.5 °C 6.9 °C 1019.5 hPa SSW 9.7 km/h 14.5 km/h 47 % 0 mm 62 W/m2
19:09 18.4 °C 7.2 °C 1019.5 hPa SSW 8 km/h 12.9 km/h 48 % 0 mm 53 W/m2
19:14 18.3 °C 7.1 °C 1019.5 hPa SSW 8 km/h 14.5 km/h 48 % 0 mm 44 W/m2
19:17 18.2 °C 7 °C 1019.5 hPa SSW 8 km/h 14.5 km/h 48 % 0 mm 40 W/m2
19:22 18.1 °C 7.2 °C 1019.5 hPa SSW 8 km/h 14.5 km/h 49 % 0 mm 33 W/m2
19:27 17.9 °C 7 °C 1019.5 hPa SSW 8 km/h 14.5 km/h 49 % 0 mm 25 W/m2
19:32 17.8 °C 6.9 °C 1019.5 hPa SSW 4.8 km/h 11.3 km/h 49 % 0 mm 19 W/m2
19:37 17.7 °C 6.8 °C 1019.5 hPa SSW 3.2 km/h 9.7 km/h 49 % 0 mm 16 W/m2
19:42 17.6 °C 7.1 °C 1019.5 hPa SSW 1.6 km/h 6.4 km/h 50 % 0 mm 12 W/m2
19:47 17.4 °C 6.6 °C 1019.5 hPa SSW 1.6 km/h 6.4 km/h 49 % 0 mm 9 W/m2
19:52 17.1 °C 6.6 °C 1019.5 hPa South 3.2 km/h 8 km/h 50 % 0 mm 7 W/m2
19:57 16.9 °C 6.4 °C 1019.5 hPa South 3.2 km/h 8 km/h 50 % 0 mm 0 W/m2
20:02 16.7 °C 6.5 °C 1019.5 hPa South 1.6 km/h 8 km/h 51 % 0 mm 0 W/m2
20:07 16.4 °C 6.5 °C 1019.5 hPa Calm   1.6 km/h 52 % 0 mm 0 W/m2
20:12 16.1 °C 6.5 °C 1019.5 hPa Calm   1.6 km/h 53 % 0 mm 0 W/m2
20:17 15.8 °C 6.5 °C 1019.9 hPa Calm   1.6 km/h 54 % 0 mm 0 W/m2
20:22 15.5 °C 6.5 °C 1019.9 hPa Calm   4.8 km/h 55 % 0 mm 0 W/m2
20:27 15.2 °C 6.7 °C 1019.9 hPa Calm   4.8 km/h 57 % 0 mm 0 W/m2
20:32 14.9 °C 6.7 °C 1019.9 hPa Calm   3.2 km/h 58 % 0 mm 0 W/m2
20:37 14.6 °C 6.4 °C 1019.9 hPa South 1.6 km/h 6.4 km/h 58 % 0 mm 0 W/m2
20:42 14.4 °C 6.5 °C 1019.9 hPa South 1.6 km/h 6.4 km/h 59 % 0 mm 0 W/m2
20:47 14.2 °C 6.6 °C 1019.9 hPa Calm     60 % 0 mm 0 W/m2
20:52 13.9 °C 6.3 °C 1019.9 hPa Calm     60 % 0 mm 0 W/m2
20:57 13.7 °C 6.6 °C 1019.9 hPa Calm     62 % 0 mm 0 W/m2
21:02 13.6 °C 6.7 °C 1019.9 hPa Calm     63 % 0 mm 0 W/m2
21:07 13.3 °C 6.6 °C 1019.9 hPa Calm   1.6 km/h 64 % 0 mm 0 W/m2
21:12 13.1 °C 6.4 °C 1019.9 hPa Calm   1.6 km/h 64 % 0 mm 0 W/m2
21:17 12.9 °C 6.7 °C 1019.9 hPa Calm   1.6 km/h 66 % 0 mm 0 W/m2
21:22 12.7 °C 6.5 °C 1019.9 hPa Calm   3.2 km/h 66 % 0 mm 0 W/m2
21:27 12.4 °C 6.2 °C 1019.9 hPa Calm   3.2 km/h 66 % 0 mm 0 W/m2
21:32 12.3 °C 6.3 °C 1019.9 hPa Calm   1.6 km/h 67 % 0 mm 0 W/m2
21:37 12.1 °C 6.4 °C 1019.9 hPa Calm   3.2 km/h 68 % 0 mm 0 W/m2
21:42 11.9 °C 6.2 °C 1019.9 hPa South 1.6 km/h 4.8 km/h 68 % 0 mm 0 W/m2
21:47 11.8 °C 6.3 °C 1019.9 hPa SSW 1.6 km/h 8 km/h 69 % 0 mm 0 W/m2
21:52 11.7 °C 6.2 °C 1019.9 hPa SW 1.6 km/h 8 km/h 69 % 0 mm 0 W/m2
21:57 11.6 °C 6.1 °C 1019.9 hPa Calm   6.4 km/h 69 % 0 mm 0 W/m2
22:03 11.5 °C 6 °C 1019.9 hPa Calm   8 km/h 69 % 0 mm 0 W/m2
22:08 11.5 °C 6 °C 1019.9 hPa SSW 1.6 km/h 9.7 km/h 69 % 0 mm 0 W/m2
22:13 11.5 °C 6 °C 1019.9 hPa SSW 1.6 km/h 9.7 km/h 69 % 0 mm 0 W/m2
22:18 11.4 °C 6.1 °C 1019.9 hPa SW 1.6 km/h 8 km/h 70 % 0 mm 0 W/m2
22:23 11.2 °C 5.9 °C 1019.5 hPa Calm   3.2 km/h 70 % 0 mm 0 W/m2
22:28 11.1 °C 5.8 °C 1019.5 hPa Calm   1.6 km/h 70 % 0 mm 0 W/m2
22:33 10.9 °C 5.8 °C 1019.5 hPa Calm   3.2 km/h 71 % 0 mm 0 W/m2
22:38 10.7 °C 5.8 °C 1019.5 hPa Calm   3.2 km/h 72 % 0 mm 0 W/m2
22:43 10.6 °C 5.9 °C 1019.5 hPa Calm   3.2 km/h 73 % 0 mm 0 W/m2
22:48 10.5 °C 5.9 °C 1019.5 hPa Calm   4.8 km/h 73 % 0 mm 0 W/m2
22:53 10.4 °C 5.8 °C 1019.5 hPa Calm   4.8 km/h 73 % 0 mm 0 W/m2
22:58 10.3 °C 5.9 °C 1019.5 hPa Calm   4.8 km/h 74 % 0 mm 0 W/m2
23:03 10.1 °C 5.7 °C 1019.5 hPa Calm   4.8 km/h 74 % 0 mm 0 W/m2
23:08 9.9 °C 5.7 °C 1019.5 hPa Calm     75 % 0 mm 0 W/m2
23:09 9.8 °C 5.6 °C 1019.5 hPa Calm     75 % 0 mm 0 W/m2
23:14 9.7 °C 5.7 °C 1019.5 hPa Calm     76 % 0 mm 0 W/m2
23:19 9.6 °C 5.6 °C 1019.5 hPa Calm     76 % 0 mm 0 W/m2
23:24 9.5 °C 5.7 °C 1019.5 hPa Calm     77 % 0 mm 0 W/m2
23:29 9.4 °C 5.6 °C 1019.5 hPa Calm     77 % 0 mm 0 W/m2
23:34 9.3 °C 5.4 °C 1019.5 hPa Calm   1.6 km/h 77 % 0 mm 0 W/m2
23:39 9.2 °C 5.6 °C 1019.5 hPa Calm   1.6 km/h 78 % 0 mm 0 W/m2
23:44 9.1 °C 5.4 °C 1019.5 hPa SW 1.6 km/h 6.4 km/h 78 % 0 mm 0 W/m2
23:49 9 °C 5.6 °C 1019.5 hPa SW 1.6 km/h 6.4 km/h 79 % 0 mm 0 W/m2
23:54 8.9 °C 5.4 °C 1019.5 hPa Calm     79 % 0 mm 0 W/m2
23:59 8.8 °C 5.3 °C 1019.5 hPa Calm   3.2 km/h 79 % 0 mm 0 W/m2
Delerius-Weather
Compliments of Weather Underground - 2.25 mb

Data updates at regular intervals.